createdAt,value
2019-02-27T00:00:37.054Z,16.87
2019-02-27T00:03:07.171Z,18.03
2019-02-27T00:05:35.837Z,18.13
2019-02-27T00:08:04.675Z,19.00
2019-02-27T00:10:33.341Z,18.03
2019-02-27T00:13:01.961Z,17.93
2019-02-27T00:15:30.593Z,15.97
2019-02-27T00:17:59.106Z,15.57
2019-02-27T00:20:27.744Z,14.63
2019-02-27T00:22:56.375Z,14.87
2019-02-27T00:25:25.044Z,15.37
2019-02-27T00:27:53.595Z,16.07
2019-02-27T00:30:22.164Z,16.10
2019-02-27T00:32:51.828Z,16.47
2019-02-27T00:35:20.536Z,16.53
2019-02-27T00:37:51.828Z,16.30
2019-02-27T00:40:19.440Z,15.97
2019-02-27T00:42:48.075Z,14.03
2019-02-27T00:45:16.716Z,13.90
2019-02-27T00:47:45.384Z,13.77
2019-02-27T00:50:13.941Z,13.20
2019-02-27T00:52:42.568Z,12.57
2019-02-27T00:55:11.236Z,12.00
2019-02-27T00:57:39.948Z,11.80
2019-02-27T01:00:13.582Z,12.30
2019-02-27T01:02:42.285Z,11.63
2019-02-27T01:05:10.924Z,10.70
2019-02-27T01:07:39.623Z,11.03
2019-02-27T01:10:12.274Z,12.03
2019-02-27T01:12:41.280Z,10.77
2019-02-27T01:15:11.500Z,10.43
2019-02-27T01:17:40.275Z,11.83
2019-02-27T01:20:12.079Z,11.23
2019-02-27T01:22:40.809Z,15.00
2019-02-27T01:25:09.428Z,13.73
2019-02-27T01:27:38.715Z,14.47
2019-02-27T01:30:18.937Z,15.60
2019-02-27T01:32:47.556Z,14.47
2019-02-27T01:35:18.738Z,14.63
2019-02-27T01:37:46.540Z,14.27
2019-02-27T01:40:17.946Z,14.93
2019-02-27T01:42:46.409Z,14.20
2019-02-27T01:45:20.605Z,12.73
2019-02-27T01:47:47.001Z,13.00
2019-02-27T01:50:35.498Z,13.17
2019-02-27T01:53:06.995Z,11.57
2019-02-27T01:55:35.088Z,9.40
2019-02-27T01:58:03.651Z,10.60
2019-02-27T02:00:32.533Z,8.87
2019-02-27T02:03:01.147Z,9.03
2019-02-27T02:05:29.864Z,9.20
2019-02-27T02:07:58.458Z,8.87
2019-02-27T02:10:28.272Z,8.77
2019-02-27T02:13:03.100Z,8.70
2019-02-27T02:15:51.010Z,8.87
2019-02-27T02:18:25.113Z,8.43
2019-02-27T02:21:00.769Z,7.40
2019-02-27T02:23:49.840Z,8.53
2019-02-27T02:26:54.935Z,8.27
2019-02-27T02:29:38.263Z,8.63
2019-02-27T02:32:17.103Z,9.60
2019-02-27T02:35:00.629Z,8.90
2019-02-27T02:37:40.866Z,8.10
2019-02-27T02:40:21.445Z,7.40
2019-02-27T02:43:11.171Z,7.53
2019-02-27T02:45:57.517Z,7.07
2019-02-27T02:48:38.273Z,7.63
2019-02-27T02:51:15.657Z,6.80
2019-02-27T02:54:02.332Z,6.33
2019-02-27T02:56:48.949Z,6.27
2019-02-27T02:59:49.636Z,5.80
2019-02-27T03:02:33.062Z,6.90
2019-02-27T03:05:13.540Z,8.00
2019-02-27T03:07:51.085Z,7.03
2019-02-27T03:10:22.663Z,7.23
2019-02-27T03:13:07.356Z,6.97
2019-02-27T03:15:48.159Z,6.37
2019-02-27T03:18:34.763Z,6.67
2019-02-27T03:21:12.105Z,6.67
2019-02-27T03:24:01.530Z,5.80
2019-02-27T03:26:38.752Z,6.73
2019-02-27T03:29:22.306Z,6.40
2019-02-27T03:32:01.129Z,5.90
2019-02-27T03:35:06.638Z,6.43
2019-02-27T03:38:02.229Z,5.70
2019-02-27T03:40:50.280Z,7.33
2019-02-27T03:43:46.094Z,5.83
2019-02-27T03:46:40.732Z,5.90
2019-02-27T03:49:31.769Z,6.30
2019-02-27T03:52:19.797Z,6.97
2019-02-27T03:55:03.383Z,5.67
2019-02-27T03:57:34.905Z,5.00
2019-02-27T04:00:24.586Z,5.00
2019-02-27T04:02:58.931Z,6.50
2019-02-27T04:05:46.061Z,11.23
2019-02-27T04:08:24.714Z,13.63
2019-02-27T04:10:53.753Z,13.80
2019-02-27T04:13:26.463Z,18.40
2019-02-27T04:15:53.802Z,21.57
2019-02-27T04:18:27.511Z,21.90
2019-02-27T04:20:52.043Z,18.30
2019-02-27T04:23:20.634Z,10.97
2019-02-27T04:25:49.457Z,8.17
2019-02-27T04:28:18.075Z,8.10
2019-02-27T04:30:51.125Z,8.80
2019-02-27T04:33:22.863Z,6.23
2019-02-27T04:35:47.456Z,8.03
2019-02-27T04:38:16.017Z,7.50
2019-02-27T04:40:44.806Z,7.60
2019-02-27T04:43:13.468Z,6.47
2019-02-27T04:45:46.429Z,6.83
2019-02-27T04:48:12.547Z,8.83
2019-02-27T04:50:41.744Z,8.63
2019-02-27T04:53:11.441Z,6.87
2019-02-27T04:55:40.071Z,9.27
2019-02-27T04:58:09.560Z,9.20
2019-02-27T05:00:38.637Z,9.77
2019-02-27T05:03:07.263Z,14.93
2019-02-27T05:05:35.886Z,17.80
2019-02-27T05:08:04.545Z,20.60
2019-02-27T05:10:33.858Z,17.70
2019-02-27T05:13:02.619Z,22.63
2019-02-27T05:15:31.298Z,23.07
2019-02-27T05:17:59.937Z,23.27
2019-02-27T05:20:28.558Z,17.77
2019-02-27T05:23:00.161Z,17.70
2019-02-27T05:25:27.304Z,24.47
2019-02-27T05:27:55.932Z,19.57
2019-02-27T05:30:24.611Z,21.13
2019-02-27T05:32:53.110Z,19.70
2019-02-27T05:35:24.190Z,17.60
2019-02-27T05:37:51.998Z,14.07
2019-02-27T05:40:23.154Z,19.40
2019-02-27T05:42:50.920Z,20.50
2019-02-27T05:45:19.510Z,19.27
2019-02-27T05:47:48.151Z,20.90
2019-02-27T05:50:16.781Z,22.63
2019-02-27T05:52:48.410Z,18.77
2019-02-27T05:55:15.673Z,18.37
2019-02-27T05:57:44.277Z,20.50
2019-02-27T06:00:15.665Z,17.40
2019-02-27T06:02:44.852Z,16.30
2019-02-27T06:05:14.325Z,14.37
2019-02-27T06:07:43.180Z,17.10
2019-02-27T06:10:17.332Z,17.87
2019-02-27T06:12:44.834Z,13.00
2019-02-27T06:15:18.324Z,15.00
2019-02-27T06:17:49.197Z,11.93
2019-02-27T06:20:17.313Z,16.93
2019-02-27T06:22:45.930Z,14.45
2019-02-27T06:25:21.660Z,12.87
2019-02-27T06:27:47.020Z,12.13
2019-02-27T06:30:22.064Z,15.90
2019-02-27T06:32:50.625Z,10.40
2019-02-27T06:35:19.253Z,14.07
2019-02-27T06:37:50.719Z,12.50
2019-02-27T06:40:18.799Z,11.17
2019-02-27T06:42:47.422Z,10.23
2019-02-27T06:45:17.527Z,11.40
2019-02-27T06:47:46.158Z,13.10
2019-02-27T06:50:16.865Z,12.40
2019-02-27T06:52:45.731Z,9.03
2019-02-27T06:55:15.469Z,9.60
2019-02-27T06:57:44.099Z,9.73
2019-02-27T07:00:20.798Z,10.10
2019-02-27T07:02:49.435Z,10.93
2019-02-27T07:05:18.113Z,10.83
2019-02-27T07:07:46.704Z,11.43
2019-02-27T07:10:19.997Z,12.50
2019-02-27T07:12:47.836Z,11.10
2019-02-27T07:15:18.709Z,9.63
2019-02-27T07:17:47.328Z,10.67
2019-02-27T07:20:27.097Z,8.93
2019-02-27T07:22:47.164Z,12.35
2019-02-27T07:25:19.315Z,11.50
2019-02-27T07:27:47.964Z,10.68
2019-02-27T07:30:18.693Z,12.73
2019-02-27T07:32:47.249Z,10.70
2019-02-27T07:35:16.686Z,9.77
2019-02-27T07:37:48.067Z,9.83
2019-02-27T07:40:16.815Z,10.55
2019-02-27T07:42:45.367Z,10.30
2019-02-27T07:45:16.518Z,12.17
2019-02-27T07:47:45.138Z,11.73
2019-02-27T07:50:20.749Z,12.05
2019-02-27T07:52:51.832Z,12.13
2019-02-27T07:55:22.886Z,11.83
2019-02-27T07:57:50.137Z,11.45
2019-02-27T08:00:21.021Z,12.63
2019-02-27T08:02:49.641Z,12.53
2019-02-27T08:05:18.460Z,11.12
2019-02-27T08:07:49.070Z,12.60
2019-02-27T08:10:24.900Z,33.73
2019-02-27T08:12:56.533Z,20.60
2019-02-27T08:15:25.301Z,18.98
2019-02-27T08:17:57.473Z,11.83
2019-02-27T08:20:24.602Z,12.80
2019-02-27T08:22:53.223Z,13.10
2019-02-27T08:25:21.848Z,13.98
2019-02-27T08:27:50.520Z,14.73
2019-02-27T08:30:26.944Z,11.38
2019-02-27T08:32:55.632Z,11.43
2019-02-27T08:35:24.258Z,15.70
2019-02-27T08:38:01.883Z,12.78
2019-02-27T08:40:25.151Z,10.60
2019-02-27T08:42:53.594Z,10.93
2019-02-27T08:45:26.646Z,10.43
2019-02-27T08:47:55.860Z,11.53
2019-02-27T08:50:25.095Z,10.10
2019-02-27T08:52:54.265Z,10.80
2019-02-27T08:55:23.109Z,10.93
2019-02-27T08:57:55.551Z,10.63
2019-02-27T09:00:24.756Z,11.78
2019-02-27T09:02:55.507Z,13.00
2019-02-27T09:05:23.816Z,15.50
2019-02-27T09:07:52.438Z,19.90
2019-02-27T09:10:23.285Z,10.60
2019-02-27T09:12:52.983Z,11.35
2019-02-27T09:15:21.621Z,11.93
2019-02-27T09:17:51.738Z,12.15
2019-02-27T09:20:21.158Z,10.35
2019-02-27T09:22:49.890Z,10.45
2019-02-27T09:25:24.972Z,10.80
2019-02-27T09:27:53.509Z,10.00
2019-02-27T09:30:28.831Z,9.20
2019-02-27T09:32:57.239Z,9.53
2019-02-27T09:35:25.858Z,10.78
2019-02-27T09:37:54.490Z,9.63
2019-02-27T09:40:30.561Z,10.40
2019-02-27T09:42:59.182Z,11.10
2019-02-27T09:45:30.062Z,12.03
2019-02-27T09:47:59.939Z,10.65
2019-02-27T09:50:40.368Z,10.03
2019-02-27T09:53:09.039Z,9.73
2019-02-27T09:55:37.601Z,8.93
2019-02-27T09:58:11.076Z,9.73
2019-02-27T10:00:40.879Z,8.90
2019-02-27T10:03:09.506Z,9.15
2019-02-27T10:05:40.711Z,9.75
2019-02-27T10:08:09.045Z,7.80
2019-02-27T10:10:37.665Z,8.28
2019-02-27T10:13:06.292Z,8.33
2019-02-27T10:15:35.096Z,7.42
2019-02-27T10:18:03.724Z,10.48
2019-02-27T10:20:36.853Z,7.35
2019-02-27T10:23:02.668Z,9.43
2019-02-27T10:25:31.334Z,8.98
2019-02-27T10:28:03.405Z,9.25
2019-02-27T10:30:30.349Z,6.37
2019-02-27T10:32:58.970Z,6.12
2019-02-27T10:35:29.376Z,6.80
2019-02-27T10:37:58.224Z,7.37
2019-02-27T10:40:27.494Z,7.22
2019-02-27T10:42:56.124Z,6.83
2019-02-27T10:45:24.762Z,8.35
2019-02-27T10:47:53.650Z,8.15
2019-02-27T10:50:22.286Z,6.90
2019-02-27T10:52:57.017Z,7.80
2019-02-27T10:55:26.913Z,7.10
2019-02-27T10:57:55.755Z,9.00
2019-02-27T11:00:32.361Z,11.40
2019-02-27T11:03:01.741Z,10.82
2019-02-27T11:05:35.132Z,20.20
2019-02-27T11:08:03.750Z,7.45
2019-02-27T11:10:32.583Z,8.03
2019-02-27T11:13:05.468Z,10.75
2019-02-27T11:15:32.071Z,9.63
2019-02-27T11:18:04.405Z,10.20
2019-02-27T11:20:31.075Z,11.73
2019-02-27T11:22:59.691Z,11.78
2019-02-27T11:25:31.458Z,14.73
2019-02-27T11:28:00.102Z,14.90
2019-02-27T11:30:37.186Z,12.78
2019-02-27T11:33:05.998Z,12.30
2019-02-27T11:35:45.856Z,12.37
2019-02-27T11:38:14.162Z,9.15
2019-02-27T11:40:42.980Z,6.65
2019-02-27T11:43:12.564Z,10.78
2019-02-27T11:45:41.180Z,11.68
2019-02-27T11:48:09.671Z,10.75
2019-02-27T11:50:38.288Z,13.93
2019-02-27T11:53:06.908Z,13.22
2019-02-27T11:55:35.626Z,12.95
2019-02-27T11:58:05.506Z,14.40
2019-02-27T12:00:34.772Z,14.78
2019-02-27T12:03:03.407Z,15.08
2019-02-27T12:05:34.327Z,12.07
2019-02-27T12:08:02.380Z,11.90
2019-02-27T12:10:34.182Z,11.20
2019-02-27T12:13:02.851Z,10.00
2019-02-27T12:15:31.476Z,9.83
2019-02-27T12:18:01.487Z,9.75
2019-02-27T12:20:30.563Z,11.33
2019-02-27T12:22:59.118Z,9.35
2019-02-27T12:25:29.936Z,7.28
2019-02-27T12:27:58.291Z,11.10
2019-02-27T12:30:28.843Z,12.58
2019-02-27T12:32:57.485Z,12.98
2019-02-27T12:35:29.065Z,11.30
2019-02-27T12:37:57.709Z,11.15
2019-02-27T12:40:26.546Z,10.85
2019-02-27T12:42:55.316Z,7.92
2019-02-27T12:45:29.684Z,8.58
2019-02-27T12:47:58.609Z,8.53
2019-02-27T12:50:31.015Z,8.80
2019-02-27T12:52:59.111Z,7.97
2019-02-27T12:55:27.845Z,8.70
2019-02-27T12:57:56.759Z,8.73
2019-02-27T13:00:30.125Z,8.33
2019-02-27T13:02:59.445Z,9.73
2019-02-27T13:05:28.605Z,8.45
2019-02-27T13:07:57.329Z,6.67
2019-02-27T13:10:34.099Z,7.58
2019-02-27T13:13:00.442Z,7.80
2019-02-27T13:15:30.084Z,8.28
2019-02-27T13:17:58.813Z,9.28
2019-02-27T13:20:28.963Z,7.30
2019-02-27T13:22:57.579Z,7.75
2019-02-27T13:25:26.203Z,8.00
2019-02-27T13:27:54.851Z,8.40
2019-02-27T13:30:24.588Z,9.13
2019-02-27T13:32:53.275Z,8.10
2019-02-27T13:35:23.192Z,9.30
2019-02-27T13:37:52.841Z,9.50
2019-02-27T13:40:23.638Z,10.13
2019-02-27T13:42:53.330Z,10.68
2019-02-27T13:45:24.619Z,10.55
2019-02-27T13:47:53.250Z,15.53
2019-02-27T13:50:26.304Z,9.53
2019-02-27T13:52:52.853Z,9.90
2019-02-27T13:55:23.009Z,10.40
2019-02-27T13:57:51.840Z,13.38
2019-02-27T14:00:34.817Z,12.47
2019-02-27T14:03:03.502Z,11.60
2019-02-27T14:05:35.064Z,9.13
2019-02-27T14:08:02.614Z,8.90
2019-02-27T14:10:32.483Z,9.70
2019-02-27T14:13:01.212Z,8.63
2019-02-27T14:15:31.550Z,9.95
2019-02-27T14:18:00.660Z,9.85
2019-02-27T14:20:29.504Z,10.25
2019-02-27T14:22:58.227Z,9.30
2019-02-27T14:25:32.632Z,7.33
2019-02-27T14:27:59.342Z,9.03
2019-02-27T14:30:36.718Z,10.40
2019-02-27T14:33:05.303Z,12.55
2019-02-27T14:35:50.237Z,12.65
2019-02-27T14:38:21.883Z,9.70
2019-02-27T14:40:49.221Z,12.88
2019-02-27T14:43:17.752Z,12.25
2019-02-27T14:45:46.322Z,13.83
2019-02-27T14:48:14.959Z,11.75
2019-02-27T14:50:43.641Z,12.50
2019-02-27T14:53:12.293Z,12.25
2019-02-27T14:55:40.922Z,11.65
2019-02-27T14:58:09.639Z,13.55
2019-02-27T15:00:40.953Z,12.13
2019-02-27T15:03:08.915Z,8.35
2019-02-27T15:05:43.185Z,7.35
2019-02-27T15:08:07.894Z,8.90
2019-02-27T15:10:40.225Z,8.90
2019-02-27T15:13:06.843Z,9.03
2019-02-27T15:15:35.484Z,7.50
2019-02-27T15:18:04.303Z,9.80
2019-02-27T15:20:34.575Z,10.55
2019-02-27T15:23:03.392Z,10.70
2019-02-27T15:25:32.039Z,13.18
2019-02-27T15:28:00.713Z,14.45
2019-02-27T15:30:31.443Z,15.90
2019-02-27T15:33:03.565Z,15.25
2019-02-27T15:35:30.575Z,15.83
2019-02-27T15:37:59.188Z,15.45
2019-02-27T15:40:30.096Z,22.05
2019-02-27T15:42:58.992Z,19.80
2019-02-27T15:45:28.427Z,31.10
2019-02-27T15:47:57.255Z,20.77
2019-02-27T15:50:34.057Z,19.27
2019-02-27T15:53:02.691Z,18.37
2019-02-27T15:55:34.290Z,16.73
2019-02-27T15:58:01.665Z,14.83
2019-02-27T16:00:30.399Z,16.15
2019-02-27T16:02:59.325Z,17.82
2019-02-27T16:05:31.473Z,16.00
2019-02-27T16:07:58.300Z,14.60
2019-02-27T16:10:28.046Z,14.83
2019-02-27T16:13:00.044Z,14.98
2019-02-27T16:15:27.973Z,15.50
2019-02-27T16:17:56.602Z,15.55
2019-02-27T16:20:26.095Z,15.70
2019-02-27T16:22:54.658Z,16.07
2019-02-27T16:25:24.403Z,15.90
2019-02-27T16:27:53.064Z,17.77
2019-02-27T16:30:33.008Z,18.40
2019-02-27T16:33:02.007Z,18.10
2019-02-27T16:35:41.444Z,20.07
2019-02-27T16:38:07.165Z,20.35
2019-02-27T16:40:35.800Z,20.03
2019-02-27T16:43:04.427Z,18.87
2019-02-27T16:45:37.009Z,20.03
2019-02-27T16:48:05.939Z,27.40
2019-02-27T16:50:34.604Z,19.43
2019-02-27T16:53:03.164Z,19.53
2019-02-27T16:55:35.623Z,20.33
2019-02-27T16:58:02.158Z,22.53
2019-02-27T17:00:33.712Z,23.70
2019-02-27T17:03:02.287Z,23.53
2019-02-27T17:05:31.872Z,23.50
2019-02-27T17:08:02.537Z,21.00
2019-02-27T17:10:33.480Z,22.17
2019-02-27T17:13:02.110Z,24.43
2019-02-27T17:15:34.543Z,25.63
2019-02-27T17:18:01.417Z,22.27
2019-02-27T17:20:30.322Z,22.87
2019-02-27T17:22:58.976Z,20.53
2019-02-27T17:25:29.978Z,18.63
2019-02-27T17:27:57.975Z,21.43
2019-02-27T17:30:37.867Z,25.23
2019-02-27T17:33:06.883Z,24.50
2019-02-27T17:35:35.638Z,23.30
2019-02-27T17:38:04.603Z,25.70
2019-02-27T17:40:36.658Z,24.67
2019-02-27T17:43:03.608Z,22.50
2019-02-27T17:45:32.286Z,24.73
2019-02-27T17:48:00.914Z,24.23
2019-02-27T17:50:31.844Z,22.43
2019-02-27T17:52:59.934Z,22.10
2019-02-27T17:55:28.560Z,19.27
2019-02-27T17:57:58.464Z,22.37
2019-02-27T18:00:33.105Z,21.77
2019-02-27T18:03:05.061Z,25.37
2019-02-27T18:05:31.972Z,21.53
2019-02-27T18:08:00.617Z,19.85
2019-02-27T18:10:29.236Z,20.47
2019-02-27T18:12:58.897Z,21.63
2019-02-27T18:15:28.268Z,19.97
2019-02-27T18:17:56.892Z,20.37
2019-02-27T18:20:25.844Z,24.95
2019-02-27T18:22:54.570Z,19.57
2019-02-27T18:25:23.207Z,18.93
2019-02-27T18:27:51.831Z,19.30
2019-02-27T18:30:22.678Z,18.20
2019-02-27T18:32:51.586Z,19.00
2019-02-27T18:35:20.714Z,18.23
2019-02-27T18:37:53.617Z,15.70
2019-02-27T18:40:20.833Z,15.70
2019-02-27T18:42:55.202Z,17.60
2019-02-27T18:45:30.064Z,16.50
2019-02-27T18:47:58.964Z,17.20
2019-02-27T18:50:27.631Z,12.57
2019-02-27T18:52:56.459Z,15.23
2019-02-27T18:55:29.576Z,14.17
2019-02-27T18:57:55.440Z,14.90
2019-02-27T19:00:29.125Z,15.60
2019-02-27T19:03:00.659Z,16.03
2019-02-27T19:05:29.382Z,17.37
2019-02-27T19:07:58.193Z,19.97
2019-02-27T19:10:26.821Z,17.57
2019-02-27T19:12:55.541Z,18.83
2019-02-27T19:15:28.042Z,17.47
2019-02-27T19:17:56.666Z,17.17
2019-02-27T19:20:37.287Z,17.37
2019-02-27T19:23:06.081Z,16.77
2019-02-27T19:25:35.519Z,15.97
2019-02-27T19:28:04.430Z,15.37
2019-02-27T19:30:34.702Z,15.03
2019-02-27T19:33:03.518Z,14.20
2019-02-27T19:35:32.132Z,16.03
2019-02-27T19:38:00.770Z,17.67
2019-02-27T19:40:30.529Z,15.13
2019-02-27T19:43:04.033Z,16.30
2019-02-27T19:45:35.766Z,16.00
2019-02-27T19:48:03.581Z,14.47
2019-02-27T19:50:32.212Z,15.03
2019-02-27T19:53:05.330Z,14.80
2019-02-27T19:55:31.469Z,17.13
2019-02-27T19:58:00.102Z,16.77
2019-02-27T20:00:35.047Z,16.70
2019-02-27T20:03:03.381Z,15.53
2019-02-27T20:05:32.009Z,14.50
2019-02-27T20:08:02.342Z,14.97
2019-02-27T20:10:33.299Z,16.00
2019-02-27T20:13:01.922Z,12.87
2019-02-27T20:15:30.650Z,12.07
2019-02-27T20:17:59.806Z,14.73
2019-02-27T20:20:30.040Z,13.50
2019-02-27T20:22:58.793Z,11.43
2019-02-27T20:25:29.499Z,12.73
2019-02-27T20:27:58.895Z,11.13
2019-02-27T20:30:28.102Z,12.00
2019-02-27T20:32:59.772Z,11.37
2019-02-27T20:35:27.515Z,11.13
2019-02-27T20:37:56.348Z,9.88
2019-02-27T20:40:25.029Z,10.90
2019-02-27T20:42:55.065Z,8.45
2019-02-27T20:45:26.584Z,9.47
2019-02-27T20:48:00.602Z,8.85
2019-02-27T20:50:37.334Z,7.83
2019-02-27T20:53:07.095Z,8.37
2019-02-27T20:55:35.706Z,8.53
2019-02-27T20:58:04.425Z,9.13
2019-02-27T21:00:36.319Z,7.33
2019-02-27T21:03:03.529Z,7.93
2019-02-27T21:05:32.658Z,8.70
2019-02-27T21:08:02.541Z,7.67
2019-02-27T21:10:33.045Z,7.80
2019-02-27T21:13:01.678Z,9.07
2019-02-27T21:15:32.526Z,8.83
2019-02-27T21:18:00.983Z,7.30
2019-02-27T21:20:35.807Z,6.40
2019-02-27T21:23:04.635Z,6.43
2019-02-27T21:25:33.286Z,5.60
2019-02-27T21:28:06.632Z,4.43
2019-02-27T21:30:32.178Z,4.33
2019-02-27T21:33:00.811Z,3.57
2019-02-27T21:35:29.958Z,3.20
2019-02-27T21:37:58.613Z,3.17
2019-02-27T21:40:27.230Z,2.17
2019-02-27T21:42:55.910Z,2.47
2019-02-27T21:45:24.844Z,2.30
2019-02-27T21:47:53.461Z,3.40
2019-02-27T21:50:26.347Z,2.23
2019-02-27T21:52:55.846Z,1.60
2019-02-27T21:55:24.766Z,2.15
2019-02-27T21:57:53.426Z,1.42
2019-02-27T22:00:26.281Z,2.60
2019-02-27T22:03:04.107Z,2.00
2019-02-27T22:05:29.058Z,2.70
2019-02-27T22:07:57.670Z,2.53
2019-02-27T22:10:26.217Z,2.47
2019-02-27T22:12:54.898Z,2.60
2019-02-27T22:15:30.370Z,2.33
2019-02-27T22:17:59.382Z,1.83
2019-02-27T22:20:28.057Z,2.30
2019-02-27T22:22:56.686Z,2.37
2019-02-27T22:25:30.144Z,2.90
2019-02-27T22:27:58.284Z,2.40
2019-02-27T22:30:26.213Z,2.63
2019-02-27T22:32:54.835Z,3.53
2019-02-27T22:35:23.423Z,2.60
2019-02-27T22:37:52.817Z,3.03
2019-02-27T22:40:23.632Z,2.70
2019-02-27T22:42:52.450Z,2.53
2019-02-27T22:45:21.385Z,2.37
2019-02-27T22:47:53.848Z,2.70
2019-02-27T22:50:21.480Z,3.73
2019-02-27T22:52:54.317Z,3.83
2019-02-27T22:55:20.394Z,3.97
2019-02-27T22:57:49.071Z,4.20
2019-02-27T23:00:51.177Z,5.60
2019-02-27T23:03:23.817Z,5.10
2019-02-27T23:05:52.550Z,5.27
2019-02-27T23:08:22.991Z,3.77
2019-02-27T23:10:51.832Z,3.33
2019-02-27T23:13:20.576Z,3.20
2019-02-27T23:15:49.269Z,3.57
2019-02-27T23:18:17.877Z,3.27
2019-02-27T23:20:46.436Z,3.70
2019-02-27T23:23:15.053Z,2.83
2019-02-27T23:25:46.556Z,3.17
2019-02-27T23:28:14.277Z,2.90
2019-02-27T23:30:42.928Z,3.07
2019-02-27T23:33:11.591Z,3.40
2019-02-27T23:35:40.143Z,3.30
2019-02-27T23:38:08.719Z,3.37
2019-02-27T23:40:37.381Z,2.50
2019-02-27T23:43:06.109Z,2.90
2019-02-27T23:45:34.735Z,4.20
2019-02-27T23:48:03.399Z,4.40
2019-02-27T23:50:32.108Z,5.20
2019-02-27T23:53:00.665Z,5.17
2019-02-27T23:55:29.291Z,5.40
2019-02-27T23:57:58.580Z,4.80
